map of BTL home
BTL - Airport
Location
City:  Battle Creek, Michigan, United States
Name:W K Kellogg Airport
ICAO:KBTL
IATA:BTL
FAA LID:BTL

Details
Type:Airport (Part 139 Class IV)
Use:Public/Civil, International (customs landing rights)
Latitude:4218'23"N (42.306473)
Longitude:8515'00"W (-85.250088)
Datum:WGS 1984
Elevation:951 ft (290 m)
Variation:5.90W (WMM2015 magnetic declination)
-0.04 annual change
Runways:3
Longest:10004 × 150 ft (3049 × 45.5 m), paved

Time
Time Zone:UTC-5 (DST-4)
Local Time:

Weather
METAR:KBTL 220801Z AUTO 03007KT 10SM OVC031 12/06 A3028 RMK AO2 T01170061
TAF:KBTL 220540Z 2206/2306 01010KT P6SM FEW030
FM221500 07005KT P6SM SKC

Related Locations
Nearby:
Farthest:YAUG: 11206 mi / 18035 km
Augusta [Augusta Airport], WA, AU

Find:

   beyond  
but within

Other Information
Maps:
NOTAMs:
Links:
Sources:

  
  • flag of United States
  • flag of Michigan
  

Airport Diagram

Airport diagram for BTL

Airport diagram PDF

Sectional Chart

Flight Planning
at skyvector.com

Satellite Image

Google Maps Satellite view

 

Copyright © 2004-2018 Karl L. Swartz. All rights reserved.
The Great Circle Mapper name and logo are trademarks of the Great Circle Mapper.
All other trademarks mentioned herein belong to their respective owners.
Please see credits for attibutions and further copyright information.

  Follow gcmap on Facebook Follow gcmap on Twitter Follow gcmap on Google+ GCmap on LinkedIn

hCard Microformat

Geo Microformat